sensor_id;sensor_type;location;lat;lon;timestamp;P1;durP1;ratioP1;P2;durP2;ratioP2
40072;SDS011;25774;52.256;9.356;2024-02-26T00:00:05;6.20;;;1.90;;
40072;SDS011;25774;52.256;9.356;2024-02-26T00:02:34;5.18;;;2.35;;
40072;SDS011;25774;52.256;9.356;2024-02-26T00:05:03;4.72;;;2.88;;
40072;SDS011;25774;52.256;9.356;2024-02-26T00:09:54;3.83;;;2.37;;
40072;SDS011;25774;52.256;9.356;2024-02-26T00:12:19;5.53;;;2.07;;
40072;SDS011;25774;52.256;9.356;2024-02-26T00:14:44;3.77;;;1.90;;
40072;SDS011;25774;52.256;9.356;2024-02-26T00:17:12;4.13;;;1.85;;
40072;SDS011;25774;52.256;9.356;2024-02-26T00:19:37;4.13;;;1.70;;
40072;SDS011;25774;52.256;9.356;2024-02-26T00:22:03;3.30;;;1.30;;
40072;SDS011;25774;52.256;9.356;2024-02-26T00:24:28;3.13;;;1.20;;
40072;SDS011;25774;52.256;9.356;2024-02-26T00:26:54;3.03;;;1.33;;
40072;SDS011;25774;52.256;9.356;2024-02-26T00:29:19;2.70;;;1.00;;
40072;SDS011;25774;52.256;9.356;2024-02-26T00:31:45;4.30;;;1.50;;
40072;SDS011;25774;52.256;9.356;2024-02-26T00:34:10;4.33;;;1.20;;
40072;SDS011;25774;52.256;9.356;2024-02-26T00:36:36;4.67;;;1.00;;
40072;SDS011;25774;52.256;9.356;2024-02-26T00:39:01;5.47;;;1.80;;
40072;SDS011;25774;52.256;9.356;2024-02-26T00:41:26;4.57;;;2.33;;
40072;SDS011;25774;52.256;9.356;2024-02-26T00:43:52;4.32;;;2.10;;
40072;SDS011;25774;52.256;9.356;2024-02-26T00:46:17;5.90;;;3.10;;
40072;SDS011;25774;52.256;9.356;2024-02-26T00:48:42;3.13;;;1.90;;
40072;SDS011;25774;52.256;9.356;2024-02-26T00:51:08;5.30;;;1.83;;
40072;SDS011;25774;52.256;9.356;2024-02-26T00:53:33;3.57;;;1.40;;
40072;SDS011;25774;52.256;9.356;2024-02-26T00:55:59;4.03;;;1.50;;
40072;SDS011;25774;52.256;9.356;2024-02-26T00:58:25;4.27;;;1.37;;
40072;SDS011;25774;52.256;9.356;2024-02-26T01:00:50;5.07;;;1.60;;
40072;SDS011;25774;52.256;9.356;2024-02-26T01:03:15;7.07;;;1.60;;
40072;SDS011;25774;52.256;9.356;2024-02-26T01:05:41;5.27;;;1.97;;
40072;SDS011;25774;52.256;9.356;2024-02-26T01:08:06;6.70;;;2.25;;
40072;SDS011;25774;52.256;9.356;2024-02-26T01:10:32;7.60;;;2.60;;
40072;SDS011;25774;52.256;9.356;2024-02-26T01:12:57;5.23;;;2.43;;
40072;SDS011;25774;52.256;9.356;2024-02-26T01:15:22;4.47;;;2.20;;
40072;SDS011;25774;52.256;9.356;2024-02-26T01:17:49;5.53;;;2.45;;
40072;SDS011;25774;52.256;9.356;2024-02-26T01:20:14;4.80;;;1.98;;
40072;SDS011;25774;52.256;9.356;2024-02-26T01:22:40;4.33;;;2.47;;
40072;SDS011;25774;52.256;9.356;2024-02-26T01:25:07;2.35;;;1.10;;
40072;SDS011;25774;52.256;9.356;2024-02-26T01:27:32;1.35;;;0.70;;
40072;SDS011;25774;52.256;9.356;2024-02-26T01:29:58;5.03;;;1.10;;
40072;SDS011;25774;52.256;9.356;2024-02-26T01:32:24;4.40;;;1.03;;
40072;SDS011;25774;52.256;9.356;2024-02-26T01:34:49;2.63;;;1.20;;
40072;SDS011;25774;52.256;9.356;2024-02-26T01:37:15;5.40;;;2.40;;
40072;SDS011;25774;52.256;9.356;2024-02-26T01:39:40;7.18;;;3.17;;
40072;SDS011;25774;52.256;9.356;2024-02-26T01:42:07;5.80;;;3.00;;
40072;SDS011;25774;52.256;9.356;2024-02-26T01:44:32;5.33;;;1.63;;
40072;SDS011;25774;52.256;9.356;2024-02-26T01:46:58;2.10;;;1.23;;
40072;SDS011;25774;52.256;9.356;2024-02-26T01:49:25;5.35;;;0.95;;
40072;SDS011;25774;52.256;9.356;2024-02-26T01:51:50;2.90;;;1.38;;
40072;SDS011;25774;52.256;9.356;2024-02-26T01:54:15;1.93;;;0.97;;
40072;SDS011;25774;52.256;9.356;2024-02-26T01:56:42;3.93;;;1.47;;
40072;SDS011;25774;52.256;9.356;2024-02-26T02:01:33;3.35;;;1.23;;
40072;SDS011;25774;52.256;9.356;2024-02-26T02:03:59;2.72;;;1.00;;
40072;SDS011;25774;52.256;9.356;2024-02-26T02:06:25;2.30;;;0.80;;
40072;SDS011;25774;52.256;9.356;2024-02-26T02:08:50;4.82;;;1.17;;
40072;SDS011;25774;52.256;9.356;2024-02-26T02:11:16;3.87;;;1.47;;
40072;SDS011;25774;52.256;9.356;2024-02-26T02:13:42;3.80;;;1.45;;
40072;SDS011;25774;52.256;9.356;2024-02-26T02:16:07;2.20;;;1.20;;
40072;SDS011;25774;52.256;9.356;2024-02-26T02:18:33;4.87;;;1.33;;
40072;SDS011;25774;52.256;9.356;2024-02-26T02:20:59;5.55;;;1.40;;
40072;SDS011;25774;52.256;9.356;2024-02-26T02:23:25;4.75;;;1.45;;
40072;SDS011;25774;52.256;9.356;2024-02-26T02:25:50;4.43;;;1.03;;
40072;SDS011;25774;52.256;9.356;2024-02-26T02:28:18;3.63;;;1.20;;
40072;SDS011;25774;52.256;9.356;2024-02-26T02:30:43;2.38;;;1.05;;
40072;SDS011;25774;52.256;9.356;2024-02-26T02:33:09;2.93;;;1.10;;
40072;SDS011;25774;52.256;9.356;2024-02-26T02:35:35;2.90;;;1.03;;
40072;SDS011;25774;52.256;9.356;2024-02-26T02:38:02;3.17;;;1.30;;
40072;SDS011;25774;52.256;9.356;2024-02-26T02:40:28;3.42;;;1.40;;
40072;SDS011;25774;52.256;9.356;2024-02-26T02:42:53;2.60;;;1.47;;
40072;SDS011;25774;52.256;9.356;2024-02-26T02:45:18;2.93;;;1.33;;
40072;SDS011;25774;52.256;9.356;2024-02-26T02:47:43;5.40;;;1.57;;
40072;SDS011;25774;52.256;9.356;2024-02-26T02:50:09;5.77;;;1.30;;
40072;SDS011;25774;52.256;9.356;2024-02-26T02:52:34;4.80;;;1.33;;
40072;SDS011;25774;52.256;9.356;2024-02-26T02:55:00;4.83;;;1.60;;
40072;SDS011;25774;52.256;9.356;2024-02-26T02:57:26;5.70;;;1.50;;
40072;SDS011;25774;52.256;9.356;2024-02-26T02:59:51;4.13;;;1.83;;
40072;SDS011;25774;52.256;9.356;2024-02-26T03:02:17;2.60;;;1.70;;
40072;SDS011;25774;52.256;9.356;2024-02-26T03:04:42;2.60;;;1.55;;
40072;SDS011;25774;52.256;9.356;2024-02-26T03:07:07;2.57;;;1.40;;
40072;SDS011;25774;52.256;9.356;2024-02-26T03:09:34;5.97;;;1.53;;
40072;SDS011;25774;52.256;9.356;2024-02-26T03:11:59;4.18;;;1.35;;
40072;SDS011;25774;52.256;9.356;2024-02-26T03:14:24;2.87;;;1.73;;
40072;SDS011;25774;52.256;9.356;2024-02-26T03:16:52;6.35;;;1.60;;
40072;SDS011;25774;52.256;9.356;2024-02-26T03:19:19;4.60;;;2.10;;
40072;SDS011;25774;52.256;9.356;2024-02-26T03:21:44;3.05;;;1.60;;
40072;SDS011;25774;52.256;9.356;2024-02-26T03:24:12;5.27;;;1.87;;
40072;SDS011;25774;52.256;9.356;2024-02-26T03:26:38;4.22;;;1.60;;
40072;SDS011;25774;52.256;9.356;2024-02-26T03:29:03;2.90;;;1.67;;
40072;SDS011;25774;52.256;9.356;2024-02-26T03:31:29;6.27;;;2.30;;
40072;SDS011;25774;52.256;9.356;2024-02-26T03:33:54;5.27;;;2.13;;
40072;SDS011;25774;52.256;9.356;2024-02-26T03:36:19;5.60;;;1.90;;
40072;SDS011;25774;52.256;9.356;2024-02-26T03:38:46;3.10;;;1.67;;
40072;SDS011;25774;52.256;9.356;2024-02-26T03:41:15;5.73;;;1.93;;
40072;SDS011;25774;52.256;9.356;2024-02-26T03:43:40;5.43;;;1.90;;
40072;SDS011;25774;52.256;9.356;2024-02-26T03:46:08;4.07;;;2.00;;
40072;SDS011;25774;52.256;9.356;2024-02-26T03:48:36;4.85;;;2.00;;
40072;SDS011;25774;52.256;9.356;2024-02-26T03:51:01;3.60;;;1.60;;
40072;SDS011;25774;52.256;9.356;2024-02-26T03:53:26;3.20;;;1.63;;
40072;SDS011;25774;52.256;9.356;2024-02-26T03:55:51;3.33;;;1.77;;
40072;SDS011;25774;52.256;9.356;2024-02-26T03:58:19;3.35;;;1.70;;
40072;SDS011;25774;52.256;9.356;2024-02-26T04:00:44;3.72;;;1.83;;
40072;SDS011;25774;52.256;9.356;2024-02-26T04:03:12;5.18;;;3.65;;
40072;SDS011;25774;52.256;9.356;2024-02-26T04:05:37;8.63;;;5.00;;
40072;SDS011;25774;52.256;9.356;2024-02-26T04:08:03;5.47;;;3.50;;
40072;SDS011;25774;52.256;9.356;2024-02-26T04:12:55;8.02;;;2.47;;
40072;SDS011;25774;52.256;9.356;2024-02-26T04:15:20;5.93;;;2.17;;
40072;SDS011;25774;52.256;9.356;2024-02-26T04:17:46;5.27;;;2.13;;
40072;SDS011;25774;52.256;9.356;2024-02-26T04:20:14;4.80;;;2.27;;
40072;SDS011;25774;52.256;9.356;2024-02-26T04:22:40;4.95;;;2.53;;
40072;SDS011;25774;52.256;9.356;2024-02-26T04:25:06;7.23;;;3.00;;
40072;SDS011;25774;52.256;9.356;2024-02-26T04:27:31;5.43;;;2.83;;
40072;SDS011;25774;52.256;9.356;2024-02-26T04:29:56;3.93;;;2.17;;
40072;SDS011;25774;52.256;9.356;2024-02-26T04:32:21;5.07;;;2.40;;
40072;SDS011;25774;52.256;9.356;2024-02-26T04:34:47;4.93;;;2.00;;
40072;SDS011;25774;52.256;9.356;2024-02-26T04:37:12;3.87;;;2.17;;
40072;SDS011;25774;52.256;9.356;2024-02-26T04:39:38;3.03;;;1.80;;
40072;SDS011;25774;52.256;9.356;2024-02-26T04:42:04;4.70;;;1.97;;
40072;SDS011;25774;52.256;9.356;2024-02-26T04:46:55;3.47;;;1.80;;
40072;SDS011;25774;52.256;9.356;2024-02-26T04:49:20;3.33;;;1.53;;
40072;SDS011;25774;52.256;9.356;2024-02-26T04:51:45;4.00;;;2.03;;
40072;SDS011;25774;52.256;9.356;2024-02-26T04:54:14;3.50;;;1.90;;
40072;SDS011;25774;52.256;9.356;2024-02-26T04:56:39;4.18;;;1.88;;
40072;SDS011;25774;52.256;9.356;2024-02-26T04:59:04;4.07;;;2.03;;
40072;SDS011;25774;52.256;9.356;2024-02-26T05:01:29;4.43;;;1.80;;
40072;SDS011;25774;52.256;9.356;2024-02-26T05:03:55;3.87;;;1.80;;
40072;SDS011;25774;52.256;9.356;2024-02-26T05:06:20;4.37;;;1.63;;
40072;SDS011;25774;52.256;9.356;2024-02-26T05:08:45;4.37;;;2.40;;
40072;SDS011;25774;52.256;9.356;2024-02-26T05:11:11;7.53;;;3.33;;
40072;SDS011;25774;52.256;9.356;2024-02-26T05:13:40;5.20;;;2.47;;
40072;SDS011;25774;52.256;9.356;2024-02-26T05:16:06;6.65;;;2.00;;
40072;SDS011;25774;52.256;9.356;2024-02-26T05:18:31;3.50;;;2.00;;
40072;SDS011;25774;52.256;9.356;2024-02-26T05:20:56;7.23;;;2.17;;
40072;SDS011;25774;52.256;9.356;2024-02-26T05:23:21;7.57;;;2.90;;
40072;SDS011;25774;52.256;9.356;2024-02-26T05:25:49;5.23;;;2.07;;
40072;SDS011;25774;52.256;9.356;2024-02-26T05:28:14;5.22;;;1.95;;
40072;SDS011;25774;52.256;9.356;2024-02-26T05:30:41;6.15;;;2.40;;
40072;SDS011;25774;52.256;9.356;2024-02-26T05:33:06;6.32;;;2.25;;
40072;SDS011;25774;52.256;9.356;2024-02-26T05:35:31;4.50;;;1.93;;
40072;SDS011;25774;52.256;9.356;2024-02-26T05:37:56;3.57;;;2.10;;
40072;SDS011;25774;52.256;9.356;2024-02-26T05:40:22;4.47;;;1.90;;
40072;SDS011;25774;52.256;9.356;2024-02-26T05:42:47;4.67;;;2.23;;
40072;SDS011;25774;52.256;9.356;2024-02-26T05:45:14;5.05;;;2.42;;
40072;SDS011;25774;52.256;9.356;2024-02-26T05:47:39;5.80;;;3.23;;
40072;SDS011;25774;52.256;9.356;2024-02-26T05:50:08;5.75;;;3.15;;
40072;SDS011;25774;52.256;9.356;2024-02-26T05:52:37;5.93;;;3.00;;
40072;SDS011;25774;52.256;9.356;2024-02-26T05:55:03;6.55;;;3.00;;
40072;SDS011;25774;52.256;9.356;2024-02-26T05:57:28;5.57;;;2.67;;
40072;SDS011;25774;52.256;9.356;2024-02-26T05:59:54;6.50;;;3.27;;
40072;SDS011;25774;52.256;9.356;2024-02-26T06:02:19;7.07;;;2.83;;
40072;SDS011;25774;52.256;9.356;2024-02-26T06:04:44;5.03;;;2.83;;
40072;SDS011;25774;52.256;9.356;2024-02-26T06:07:10;5.60;;;3.13;;
40072;SDS011;25774;52.256;9.356;2024-02-26T06:09:35;5.68;;;3.17;;
40072;SDS011;25774;52.256;9.356;2024-02-26T06:12:02;4.83;;;2.90;;
40072;SDS011;25774;52.256;9.356;2024-02-26T06:14:27;5.65;;;2.88;;
40072;SDS011;25774;52.256;9.356;2024-02-26T06:17:00;13.80;;;7.30;;
40072;SDS011;25774;52.256;9.356;2024-02-26T06:19:26;13.52;;;6.30;;
40072;SDS011;25774;52.256;9.356;2024-02-26T06:21:52;11.43;;;5.63;;
40072;SDS011;25774;52.256;9.356;2024-02-26T06:24:17;11.88;;;6.07;;
40072;SDS011;25774;52.256;9.356;2024-02-26T06:26:42;10.00;;;4.77;;
40072;SDS011;25774;52.256;9.356;2024-02-26T06:29:08;14.17;;;4.87;;
40072;SDS011;25774;52.256;9.356;2024-02-26T06:31:34;11.30;;;5.57;;
40072;SDS011;25774;52.256;9.356;2024-02-26T06:33:59;8.93;;;5.18;;
40072;SDS011;25774;52.256;9.356;2024-02-26T06:36:24;10.60;;;5.03;;
40072;SDS011;25774;52.256;9.356;2024-02-26T06:38:50;11.63;;;5.30;;
40072;SDS011;25774;52.256;9.356;2024-02-26T06:41:17;12.23;;;5.03;;
40072;SDS011;25774;52.256;9.356;2024-02-26T06:43:43;12.20;;;4.83;;
40072;SDS011;25774;52.256;9.356;2024-02-26T06:46:08;12.95;;;5.85;;
40072;SDS011;25774;52.256;9.356;2024-02-26T06:48:33;13.40;;;6.00;;
40072;SDS011;25774;52.256;9.356;2024-02-26T06:50:59;15.40;;;6.63;;
40072;SDS011;25774;52.256;9.356;2024-02-26T06:53:24;14.13;;;7.70;;
40072;SDS011;25774;52.256;9.356;2024-02-26T06:55:49;16.67;;;7.67;;
40072;SDS011;25774;52.256;9.356;2024-02-26T06:58:16;17.67;;;8.63;;
40072;SDS011;25774;52.256;9.356;2024-02-26T07:00:42;14.77;;;8.18;;
40072;SDS011;25774;52.256;9.356;2024-02-26T07:03:07;16.40;;;7.80;;
40072;SDS011;25774;52.256;9.356;2024-02-26T07:05:32;18.60;;;8.50;;
40072;SDS011;25774;52.256;9.356;2024-02-26T07:07:57;13.33;;;7.17;;
40072;SDS011;25774;52.256;9.356;2024-02-26T07:10:23;14.17;;;7.50;;
40072;SDS011;25774;52.256;9.356;2024-02-26T07:12:48;15.17;;;7.20;;
40072;SDS011;25774;52.256;9.356;2024-02-26T07:15:13;13.93;;;7.33;;
40072;SDS011;25774;52.256;9.356;2024-02-26T07:17:38;15.50;;;8.07;;
40072;SDS011;25774;52.256;9.356;2024-02-26T07:20:07;14.57;;;7.00;;
40072;SDS011;25774;52.256;9.356;2024-02-26T07:22:33;12.85;;;6.57;;
40072;SDS011;25774;52.256;9.356;2024-02-26T07:24:58;18.37;;;7.37;;
40072;SDS011;25774;52.256;9.356;2024-02-26T07:27:23;13.23;;;6.57;;
40072;SDS011;25774;52.256;9.356;2024-02-26T07:29:50;12.93;;;7.33;;
40072;SDS011;25774;52.256;9.356;2024-02-26T07:32:15;16.55;;;7.20;;
40072;SDS011;25774;52.256;9.356;2024-02-26T07:34:41;14.27;;;7.70;;
40072;SDS011;25774;52.256;9.356;2024-02-26T07:37:09;15.23;;;7.32;;
40072;SDS011;25774;52.256;9.356;2024-02-26T07:39:35;14.20;;;7.20;;
40072;SDS011;25774;52.256;9.356;2024-02-26T07:42:00;12.67;;;7.53;;
40072;SDS011;25774;52.256;9.356;2024-02-26T07:44:25;13.07;;;6.90;;
40072;SDS011;25774;52.256;9.356;2024-02-26T07:46:50;15.83;;;6.77;;
40072;SDS011;25774;52.256;9.356;2024-02-26T07:49:15;11.20;;;6.63;;
40072;SDS011;25774;52.256;9.356;2024-02-26T07:51:41;14.33;;;7.77;;
40072;SDS011;25774;52.256;9.356;2024-02-26T07:54:06;14.03;;;6.90;;
40072;SDS011;25774;52.256;9.356;2024-02-26T07:56:31;13.67;;;7.27;;
40072;SDS011;25774;52.256;9.356;2024-02-26T07:58:57;14.03;;;7.47;;
40072;SDS011;25774;52.256;9.356;2024-02-26T08:01:22;15.33;;;8.17;;
40072;SDS011;25774;52.256;9.356;2024-02-26T08:03:50;16.40;;;8.38;;
40072;SDS011;25774;52.256;9.356;2024-02-26T08:06:16;12.38;;;6.72;;
40072;SDS011;25774;52.256;9.356;2024-02-26T08:08:42;10.95;;;6.40;;
40072;SDS011;25774;52.256;9.356;2024-02-26T08:11:09;15.23;;;7.45;;
40072;SDS011;25774;52.256;9.356;2024-02-26T08:13:34;14.20;;;6.30;;
40072;SDS011;25774;52.256;9.356;2024-02-26T08:15:59;11.57;;;5.53;;
40072;SDS011;25774;52.256;9.356;2024-02-26T08:18:24;13.00;;;5.70;;
40072;SDS011;25774;52.256;9.356;2024-02-26T08:20:50;12.30;;;5.50;;
40072;SDS011;25774;52.256;9.356;2024-02-26T08:23:15;13.13;;;6.00;;
40072;SDS011;25774;52.256;9.356;2024-02-26T08:25:41;11.00;;;5.47;;
40072;SDS011;25774;52.256;9.356;2024-02-26T08:28:06;41.15;;;12.15;;
40072;SDS011;25774;52.256;9.356;2024-02-26T08:30:33;41.27;;;13.67;;
40072;SDS011;25774;52.256;9.356;2024-02-26T08:32:59;27.10;;;6.80;;
40072;SDS011;25774;52.256;9.356;2024-02-26T08:35:24;22.17;;;6.00;;
40072;SDS011;25774;52.256;9.356;2024-02-26T08:37:50;9.57;;;4.33;;
40072;SDS011;25774;52.256;9.356;2024-02-26T08:40:15;7.17;;;3.83;;
40072;SDS011;25774;52.256;9.356;2024-02-26T08:42:40;9.77;;;3.60;;
40072;SDS011;25774;52.256;9.356;2024-02-26T08:45:07;7.33;;;3.70;;
40072;SDS011;25774;52.256;9.356;2024-02-26T08:47:32;9.90;;;4.28;;
40072;SDS011;25774;52.256;9.356;2024-02-26T08:49:58;7.90;;;3.50;;
40072;SDS011;25774;52.256;9.356;2024-02-26T08:52:23;7.63;;;3.83;;
40072;SDS011;25774;52.256;9.356;2024-02-26T08:54:48;8.13;;;3.77;;
40072;SDS011;25774;52.256;9.356;2024-02-26T08:57:13;8.43;;;4.13;;
40072;SDS011;25774;52.256;9.356;2024-02-26T08:59:39;7.53;;;3.87;;
40072;SDS011;25774;52.256;9.356;2024-02-26T09:02:04;8.90;;;4.23;;
40072;SDS011;25774;52.256;9.356;2024-02-26T09:04:30;6.40;;;3.37;;
40072;SDS011;25774;52.256;9.356;2024-02-26T09:06:56;8.50;;;3.35;;
40072;SDS011;25774;52.256;9.356;2024-02-26T09:09:22;6.97;;;3.22;;
40072;SDS011;25774;52.256;9.356;2024-02-26T09:11:48;8.73;;;3.40;;
40072;SDS011;25774;52.256;9.356;2024-02-26T09:14:17;5.70;;;2.83;;
40072;SDS011;25774;52.256;9.356;2024-02-26T09:16:42;7.13;;;3.03;;
40072;SDS011;25774;52.256;9.356;2024-02-26T09:19:07;6.17;;;2.93;;
40072;SDS011;25774;52.256;9.356;2024-02-26T09:21:33;7.83;;;2.57;;
40072;SDS011;25774;52.256;9.356;2024-02-26T09:23:58;5.23;;;3.03;;
40072;SDS011;25774;52.256;9.356;2024-02-26T09:26:23;7.40;;;3.70;;
40072;SDS011;25774;52.256;9.356;2024-02-26T09:28:51;7.70;;;3.43;;
40072;SDS011;25774;52.256;9.356;2024-02-26T09:31:17;5.78;;;3.00;;
40072;SDS011;25774;52.256;9.356;2024-02-26T09:33:43;7.32;;;3.13;;
40072;SDS011;25774;52.256;9.356;2024-02-26T09:36:09;5.78;;;3.03;;
40072;SDS011;25774;52.256;9.356;2024-02-26T09:38:36;7.07;;;2.70;;
40072;SDS011;25774;52.256;9.356;2024-02-26T09:41:03;5.05;;;2.85;;
40072;SDS011;25774;52.256;9.356;2024-02-26T09:43:32;8.10;;;2.73;;
40072;SDS011;25774;52.256;9.356;2024-02-26T09:45:59;6.32;;;3.58;;
40072;SDS011;25774;52.256;9.356;2024-02-26T09:48:24;7.07;;;3.10;;
40072;SDS011;25774;52.256;9.356;2024-02-26T09:50:49;6.23;;;3.20;;
40072;SDS011;25774;52.256;9.356;2024-02-26T09:53:14;5.50;;;3.27;;
40072;SDS011;25774;52.256;9.356;2024-02-26T09:55:41;8.52;;;2.90;;
40072;SDS011;25774;52.256;9.356;2024-02-26T09:58:07;6.43;;;3.20;;
40072;SDS011;25774;52.256;9.356;2024-02-26T10:00:32;7.40;;;3.13;;
40072;SDS011;25774;52.256;9.356;2024-02-26T10:03:03;5.60;;;3.25;;
40072;SDS011;25774;52.256;9.356;2024-02-26T10:05:28;11.10;;;3.97;;
40072;SDS011;25774;52.256;9.356;2024-02-26T10:07:54;9.15;;;3.50;;
40072;SDS011;25774;52.256;9.356;2024-02-26T10:10:21;6.97;;;3.40;;
40072;SDS011;25774;52.256;9.356;2024-02-26T10:12:48;5.80;;;3.33;;
40072;SDS011;25774;52.256;9.356;2024-02-26T10:15:13;8.60;;;3.70;;
40072;SDS011;25774;52.256;9.356;2024-02-26T10:17:38;11.37;;;4.00;;
40072;SDS011;25774;52.256;9.356;2024-02-26T10:20:14;8.17;;;4.40;;
40072;SDS011;25774;52.256;9.356;2024-02-26T10:22:48;6.88;;;4.15;;
40072;SDS011;25774;52.256;9.356;2024-02-26T10:25:14;7.10;;;3.10;;
40072;SDS011;25774;52.256;9.356;2024-02-26T10:27:42;5.37;;;3.00;;
40072;SDS011;25774;52.256;9.356;2024-02-26T10:30:18;5.80;;;2.65;;
40072;SDS011;25774;52.256;9.356;2024-02-26T10:32:44;6.00;;;2.83;;
40072;SDS011;25774;52.256;9.356;2024-02-26T10:37:35;5.57;;;2.72;;
40072;SDS011;25774;52.256;9.356;2024-02-26T10:40:01;7.40;;;3.13;;
40072;SDS011;25774;52.256;9.356;2024-02-26T10:44:52;5.80;;;2.63;;
40072;SDS011;25774;52.256;9.356;2024-02-26T10:47:17;5.80;;;2.20;;
40072;SDS011;25774;52.256;9.356;2024-02-26T10:49:46;4.30;;;2.30;;
40072;SDS011;25774;52.256;9.356;2024-02-26T10:52:12;4.95;;;2.25;;
40072;SDS011;25774;52.256;9.356;2024-02-26T10:54:38;6.63;;;2.42;;
40072;SDS011;25774;52.256;9.356;2024-02-26T10:57:06;6.28;;;2.55;;
40072;SDS011;25774;52.256;9.356;2024-02-26T10:59:32;5.20;;;2.58;;
40072;SDS011;25774;52.256;9.356;2024-02-26T11:01:58;8.20;;;2.95;;
40072;SDS011;25774;52.256;9.356;2024-02-26T11:04:24;10.23;;;2.88;;
40072;SDS011;25774;52.256;9.356;2024-02-26T11:06:53;6.25;;;2.83;;
40072;SDS011;25774;52.256;9.356;2024-02-26T11:09:21;6.30;;;3.03;;
40072;SDS011;25774;52.256;9.356;2024-02-26T11:11:47;5.75;;;2.80;;
40072;SDS011;25774;52.256;9.356;2024-02-26T11:14:13;6.05;;;2.70;;
40072;SDS011;25774;52.256;9.356;2024-02-26T11:16:39;5.18;;;2.50;;
40072;SDS011;25774;52.256;9.356;2024-02-26T11:19:06;6.53;;;2.97;;
40072;SDS011;25774;52.256;9.356;2024-02-26T11:21:33;6.57;;;2.70;;
40072;SDS011;25774;52.256;9.356;2024-02-26T11:24:10;6.60;;;3.05;;
40072;SDS011;25774;52.256;9.356;2024-02-26T11:29:23;4.93;;;2.28;;
40072;SDS011;25774;52.256;9.356;2024-02-26T11:31:50;4.78;;;2.60;;
40072;SDS011;25774;52.256;9.356;2024-02-26T11:34:16;9.80;;;4.90;;
40072;SDS011;25774;52.256;9.356;2024-02-26T11:36:42;4.68;;;2.30;;
40072;SDS011;25774;52.256;9.356;2024-02-26T11:39:07;4.77;;;2.50;;
40072;SDS011;25774;52.256;9.356;2024-02-26T11:41:33;5.75;;;2.60;;
40072;SDS011;25774;52.256;9.356;2024-02-26T11:43:58;3.90;;;1.90;;
40072;SDS011;25774;52.256;9.356;2024-02-26T11:46:29;3.78;;;1.55;;
40072;SDS011;25774;52.256;9.356;2024-02-26T11:49:03;5.82;;;1.83;;
40072;SDS011;25774;52.256;9.356;2024-02-26T11:51:33;10.50;;;3.72;;
40072;SDS011;25774;52.256;9.356;2024-02-26T11:54:00;4.45;;;1.92;;
40072;SDS011;25774;52.256;9.356;2024-02-26T11:56:25;5.35;;;2.65;;
40072;SDS011;25774;52.256;9.356;2024-02-26T11:58:58;6.65;;;2.00;;
40072;SDS011;25774;52.256;9.356;2024-02-26T12:01:57;4.95;;;2.22;;
40072;SDS011;25774;52.256;9.356;2024-02-26T12:04:25;3.80;;;1.60;;
40072;SDS011;25774;52.256;9.356;2024-02-26T12:06:52;3.95;;;1.80;;
40072;SDS011;25774;52.256;9.356;2024-02-26T12:09:40;4.53;;;1.77;;
40072;SDS011;25774;52.256;9.356;2024-02-26T12:12:05;4.75;;;2.47;;
40072;SDS011;25774;52.256;9.356;2024-02-26T12:14:32;5.70;;;2.40;;
40072;SDS011;25774;52.256;9.356;2024-02-26T12:16:58;5.10;;;2.50;;
40072;SDS011;25774;52.256;9.356;2024-02-26T12:19:25;7.40;;;4.90;;
40072;SDS011;25774;52.256;9.356;2024-02-26T12:21:52;4.03;;;2.10;;
40072;SDS011;25774;52.256;9.356;2024-02-26T12:24:21;5.10;;;1.92;;
40072;SDS011;25774;52.256;9.356;2024-02-26T12:26:46;4.75;;;2.35;;
40072;SDS011;25774;52.256;9.356;2024-02-26T12:29:12;6.53;;;2.40;;
40072;SDS011;25774;52.256;9.356;2024-02-26T12:31:37;3.47;;;2.30;;
40072;SDS011;25774;52.256;9.356;2024-02-26T12:36:29;4.60;;;1.90;;
40072;SDS011;25774;52.256;9.356;2024-02-26T12:38:54;5.40;;;2.43;;
40072;SDS011;25774;52.256;9.356;2024-02-26T12:41:20;3.30;;;2.10;;
40072;SDS011;25774;52.256;9.356;2024-02-26T12:43:45;6.47;;;3.05;;
40072;SDS011;25774;52.256;9.356;2024-02-26T12:46:11;6.13;;;3.00;;
40072;SDS011;25774;52.256;9.356;2024-02-26T12:48:37;7.65;;;2.17;;
40072;SDS011;25774;52.256;9.356;2024-02-26T12:51:05;3.53;;;1.83;;
40072;SDS011;25774;52.256;9.356;2024-02-26T12:53:31;3.90;;;2.00;;
40072;SDS011;25774;52.256;9.356;2024-02-26T12:55:56;5.50;;;2.47;;
40072;SDS011;25774;52.256;9.356;2024-02-26T12:58:22;7.33;;;2.30;;
40072;SDS011;25774;52.256;9.356;2024-02-26T13:00:52;5.25;;;2.10;;
40072;SDS011;25774;52.256;9.356;2024-02-26T13:03:19;6.40;;;2.38;;
40072;SDS011;25774;52.256;9.356;2024-02-26T13:08:10;5.38;;;2.42;;
40072;SDS011;25774;52.256;9.356;2024-02-26T13:10:42;5.72;;;2.70;;
40072;SDS011;25774;52.256;9.356;2024-02-26T13:13:07;3.87;;;2.20;;
40072;SDS011;25774;52.256;9.356;2024-02-26T13:15:33;11.18;;;3.13;;
40072;SDS011;25774;52.256;9.356;2024-02-26T13:17:58;7.30;;;2.60;;
40072;SDS011;25774;52.256;9.356;2024-02-26T13:20:33;6.47;;;2.88;;
40072;SDS011;25774;52.256;9.356;2024-02-26T13:22:59;3.80;;;2.03;;
40072;SDS011;25774;52.256;9.356;2024-02-26T13:25:25;4.90;;;2.58;;
40072;SDS011;25774;52.256;9.356;2024-02-26T13:27:50;7.20;;;3.23;;
40072;SDS011;25774;52.256;9.356;2024-02-26T13:30:15;5.67;;;2.70;;
40072;SDS011;25774;52.256;9.356;2024-02-26T13:32:42;4.33;;;2.30;;
40072;SDS011;25774;52.256;9.356;2024-02-26T13:35:10;5.35;;;2.22;;
40072;SDS011;25774;52.256;9.356;2024-02-26T13:37:35;6.65;;;2.30;;
40072;SDS011;25774;52.256;9.356;2024-02-26T13:40:03;4.95;;;2.45;;
40072;SDS011;25774;52.256;9.356;2024-02-26T13:42:30;4.38;;;1.98;;
40072;SDS011;25774;52.256;9.356;2024-02-26T13:44:55;4.50;;;1.90;;
40072;SDS011;25774;52.256;9.356;2024-02-26T13:47:27;4.07;;;2.10;;
40072;SDS011;25774;52.256;9.356;2024-02-26T13:49:52;10.00;;;3.10;;
40072;SDS011;25774;52.256;9.356;2024-02-26T13:52:17;7.50;;;3.13;;
40072;SDS011;25774;52.256;9.356;2024-02-26T13:54:44;4.80;;;2.67;;
40072;SDS011;25774;52.256;9.356;2024-02-26T13:57:10;4.10;;;2.40;;
40072;SDS011;25774;52.256;9.356;2024-02-26T13:59:35;4.50;;;2.33;;
40072;SDS011;25774;52.256;9.356;2024-02-26T14:02:00;3.87;;;2.17;;
40072;SDS011;25774;52.256;9.356;2024-02-26T14:04:25;4.90;;;2.50;;
40072;SDS011;25774;52.256;9.356;2024-02-26T14:06:50;5.10;;;2.83;;
40072;SDS011;25774;52.256;9.356;2024-02-26T14:09:16;4.17;;;2.37;;
40072;SDS011;25774;52.256;9.356;2024-02-26T14:11:44;3.80;;;2.22;;
40072;SDS011;25774;52.256;9.356;2024-02-26T14:16:35;5.50;;;2.47;;
40072;SDS011;25774;52.256;9.356;2024-02-26T14:19:00;5.03;;;2.90;;
40072;SDS011;25774;52.256;9.356;2024-02-26T14:21:26;5.50;;;2.40;;
40072;SDS011;25774;52.256;9.356;2024-02-26T14:23:52;5.50;;;2.38;;
40072;SDS011;25774;52.256;9.356;2024-02-26T14:26:17;5.93;;;2.27;;
40072;SDS011;25774;52.256;9.356;2024-02-26T14:28:42;4.33;;;2.17;;
40072;SDS011;25774;52.256;9.356;2024-02-26T14:31:08;5.80;;;2.57;;
40072;SDS011;25774;52.256;9.356;2024-02-26T14:33:37;4.85;;;2.70;;
40072;SDS011;25774;52.256;9.356;2024-02-26T14:36:02;3.90;;;2.05;;
40072;SDS011;25774;52.256;9.356;2024-02-26T14:38:28;4.67;;;2.33;;
40072;SDS011;25774;52.256;9.356;2024-02-26T14:40:53;4.88;;;2.42;;
40072;SDS011;25774;52.256;9.356;2024-02-26T14:43:19;5.73;;;2.63;;
40072;SDS011;25774;52.256;9.356;2024-02-26T14:45:45;4.57;;;2.87;;
40072;SDS011;25774;52.256;9.356;2024-02-26T14:48:10;4.53;;;2.53;;
40072;SDS011;25774;52.256;9.356;2024-02-26T14:50:37;4.65;;;2.38;;
40072;SDS011;25774;52.256;9.356;2024-02-26T14:53:02;4.55;;;2.63;;
40072;SDS011;25774;52.256;9.356;2024-02-26T14:55:27;4.97;;;2.60;;
40072;SDS011;25774;52.256;9.356;2024-02-26T14:57:54;4.53;;;2.20;;
40072;SDS011;25774;52.256;9.356;2024-02-26T15:00:19;11.68;;;3.65;;
40072;SDS011;25774;52.256;9.356;2024-02-26T15:02:45;6.93;;;3.33;;